createdAt,value
2018-05-07T00:00:24.278Z,8.60
2018-05-07T00:02:51.525Z,8.60
2018-05-07T00:05:18.376Z,8.60
2018-05-07T00:07:45.840Z,8.60
2018-05-07T00:10:13.403Z,8.60
2018-05-07T00:12:40.759Z,8.60
2018-05-07T00:15:07.711Z,8.60
2018-05-07T00:17:34.559Z,8.60
2018-05-07T00:20:01.510Z,8.60
2018-05-07T00:22:28.473Z,8.50
2018-05-07T00:24:55.313Z,8.50
2018-05-07T00:27:22.469Z,8.50
2018-05-07T00:29:49.317Z,8.40
2018-05-07T00:32:16.267Z,8.30
2018-05-07T00:34:43.320Z,8.30
2018-05-07T00:37:10.474Z,8.40
2018-05-07T00:39:37.629Z,8.30
2018-05-07T00:42:04.480Z,8.30
2018-05-07T00:44:31.650Z,8.30
2018-05-07T00:46:58.790Z,8.30
2018-05-07T00:49:25.637Z,8.30
2018-05-07T00:51:52.792Z,8.30
2018-05-07T00:54:19.641Z,8.30
2018-05-07T00:56:46.900Z,8.30
2018-05-07T00:59:13.853Z,8.30
2018-05-07T01:01:42.238Z,8.10
2018-05-07T01:04:09.194Z,8.10
2018-05-07T01:06:36.140Z,8.10
2018-05-07T01:09:03.092Z,8.10
2018-05-07T01:11:30.038Z,8.10
2018-05-07T01:13:56.787Z,8.20
2018-05-07T01:16:24.657Z,8.20
2018-05-07T01:18:51.610Z,8.20
2018-05-07T01:21:18.563Z,8.10
2018-05-07T01:23:45.510Z,8.00
2018-05-07T01:26:12.361Z,8.00
2018-05-07T01:28:39.316Z,8.00
2018-05-07T01:31:06.570Z,8.00
2018-05-07T01:33:33.519Z,7.90
2018-05-07T01:36:01.186Z,7.90
2018-05-07T01:38:28.243Z,7.80
2018-05-07T01:40:56.215Z,7.70
2018-05-07T01:43:23.085Z,7.60
2018-05-07T01:45:50.015Z,7.60
2018-05-07T01:48:16.861Z,7.60
2018-05-07T01:50:43.813Z,7.60
2018-05-07T01:53:12.712Z,7.60
2018-05-07T01:55:39.661Z,7.60
2018-05-07T01:58:06.817Z,7.50
2018-05-07T02:00:33.770Z,7.60
2018-05-07T02:03:00.719Z,7.60
2018-05-07T02:05:27.440Z,7.60
2018-05-07T02:07:54.313Z,7.60
2018-05-07T02:10:22.288Z,7.60
2018-05-07T02:12:49.250Z,7.70
2018-05-07T02:15:16.903Z,7.50
2018-05-07T02:17:43.752Z,7.50
2018-05-07T02:20:10.706Z,7.50
2018-05-07T02:22:37.553Z,7.50
2018-05-07T02:25:04.506Z,7.50
2018-05-07T02:27:31.456Z,7.50
2018-05-07T02:29:58.408Z,7.50
2018-05-07T02:32:25.256Z,7.50
2018-05-07T02:34:52.206Z,7.50
2018-05-07T02:37:19.362Z,7.50
2018-05-07T02:39:46.312Z,7.50
2018-05-07T02:42:13.165Z,7.40
2018-05-07T02:44:40.010Z,7.40
2018-05-07T02:47:07.579Z,7.40
2018-05-07T02:49:34.523Z,7.50
2018-05-07T02:52:01.374Z,7.50
2018-05-07T02:54:28.429Z,7.50
2018-05-07T02:56:56.819Z,7.40
2018-05-07T02:59:24.378Z,7.30
2018-05-07T03:01:51.226Z,7.30
2018-05-07T03:04:18.178Z,7.30
2018-05-07T03:06:45.152Z,7.40
2018-05-07T03:09:12.084Z,7.40
2018-05-07T03:11:38.827Z,7.30
2018-05-07T03:14:05.978Z,7.40
2018-05-07T03:16:33.242Z,7.50
2018-05-07T03:19:00.189Z,7.40
2018-05-07T03:21:27.854Z,7.50
2018-05-07T03:23:54.806Z,7.50
2018-05-07T03:26:21.756Z,7.50
2018-05-07T03:28:49.119Z,7.60
2018-05-07T03:31:16.227Z,7.70
2018-05-07T03:33:43.840Z,7.90
2018-05-07T03:36:10.687Z,7.80
2018-05-07T03:38:37.536Z,7.90
2018-05-07T03:41:05.227Z,8.10
2018-05-07T03:43:32.149Z,8.10
2018-05-07T03:45:59.006Z,8.20
2018-05-07T03:48:25.769Z,8.20
2018-05-07T03:50:52.597Z,8.20
2018-05-07T03:53:20.469Z,8.50
2018-05-07T03:55:47.425Z,8.50
2018-05-07T03:58:14.371Z,9.30
2018-05-07T04:00:41.732Z,10.10
2018-05-07T04:03:08.588Z,10.50
2018-05-07T04:05:35.432Z,10.60
2018-05-07T04:08:02.688Z,10.50
2018-05-07T04:10:30.049Z,10.50
2018-05-07T04:12:57.101Z,10.90
2018-05-07T04:15:24.467Z,12.10
2018-05-07T04:18:03.594Z,13.20
2018-05-07T04:20:52.544Z,13.90
2018-05-07T04:23:44.365Z,13.90
2018-05-07T04:26:11.209Z,13.60
2018-05-07T04:28:38.159Z,13.10
2018-05-07T04:31:05.524Z,13.00
2018-05-07T04:33:32.472Z,13.20
2018-05-07T04:36:00.550Z,13.50
2018-05-07T04:38:27.806Z,13.40
2018-05-07T04:40:56.189Z,13.40
2018-05-07T04:43:23.037Z,13.40
2018-05-07T04:45:49.892Z,13.70
2018-05-07T04:48:17.143Z,14.40
2018-05-07T04:50:43.992Z,16.10
2018-05-07T04:53:10.745Z,17.70
2018-05-07T04:55:37.692Z,19.30
2018-05-07T04:58:04.641Z,19.90
2018-05-07T05:00:31.387Z,20.70
2018-05-07T05:02:58.245Z,21.60
2018-05-07T05:05:25.501Z,22.30
2018-05-07T05:07:52.445Z,23.00
2018-05-07T05:10:19.395Z,23.80
2018-05-07T05:12:46.245Z,24.30
2018-05-07T05:15:13.914Z,24.20
2018-05-07T05:17:40.671Z,24.20
2018-05-07T05:20:08.435Z,24.10
2018-05-07T05:22:35.275Z,24.70
2018-05-07T05:25:02.229Z,24.60
2018-05-07T05:27:29.251Z,24.30
2018-05-07T05:29:56.755Z,25.30
2018-05-07T05:32:23.694Z,25.30
2018-05-07T05:34:50.484Z,25.80
2018-05-07T05:37:18.105Z,24.90
2018-05-07T05:39:45.844Z,24.90
2018-05-07T05:42:14.410Z,25.50
2018-05-07T05:44:42.851Z,24.70
2018-05-07T05:47:09.702Z,24.60
2018-05-07T05:49:37.058Z,24.50
2018-05-07T05:52:04.009Z,24.30
2018-05-07T05:54:30.754Z,23.60
2018-05-07T05:56:57.643Z,22.90
2018-05-07T05:59:25.170Z,24.70
2018-05-07T06:01:52.021Z,24.70
2018-05-07T06:04:18.868Z,24.90
2018-05-07T06:06:46.228Z,25.00
2018-05-07T06:09:13.077Z,25.00
2018-05-07T06:11:40.333Z,25.30
2018-05-07T06:14:07.747Z,25.50
2018-05-07T06:16:35.771Z,25.80
2018-05-07T06:19:02.827Z,25.70
2018-05-07T06:21:29.776Z,25.70
2018-05-07T06:23:57.138Z,25.70
2018-05-07T06:26:24.108Z,25.50
2018-05-07T06:28:51.139Z,27.10
2018-05-07T06:31:18.196Z,27.60
2018-05-07T06:33:45.146Z,28.00
2018-05-07T06:36:12.001Z,27.50
2018-05-07T06:38:39.661Z,28.30
2018-05-07T06:41:06.508Z,28.30
2018-05-07T06:43:33.561Z,28.10
2018-05-07T06:46:00.424Z,27.70
2018-05-07T06:48:27.269Z,28.60
2018-05-07T06:50:54.212Z,28.00
2018-05-07T06:53:21.165Z,30.00
2018-05-07T06:55:48.217Z,29.20
2018-05-07T06:58:15.168Z,30.70
2018-05-07T07:00:42.122Z,29.40
2018-05-07T07:03:08.965Z,29.00
2018-05-07T07:05:36.329Z,29.40
2018-05-07T07:08:03.368Z,30.30
2018-05-07T07:10:30.433Z,29.90
2018-05-07T07:12:57.394Z,30.30
2018-05-07T07:15:25.155Z,30.00
2018-05-07T07:17:52.000Z,30.00
2018-05-07T07:20:18.849Z,31.20
2018-05-07T07:22:52.555Z,30.40
2018-05-07T07:25:19.402Z,30.80
2018-05-07T07:27:46.354Z,30.50
2018-05-07T07:30:13.307Z,30.70
2018-05-07T07:32:40.261Z,31.50
2018-05-07T07:35:07.314Z,30.40
2018-05-07T07:37:34.158Z,30.10
2018-05-07T07:40:01.112Z,29.50
2018-05-07T07:42:27.961Z,29.80
2018-05-07T07:44:55.217Z,29.30
2018-05-07T07:47:22.138Z,29.60
2018-05-07T07:49:49.322Z,29.20
2018-05-07T07:52:16.274Z,28.80
2018-05-07T07:54:43.228Z,28.00
2018-05-07T07:57:10.073Z,28.30
2018-05-07T07:59:37.131Z,28.70
2018-05-07T08:02:04.076Z,29.80
2018-05-07T08:04:31.233Z,30.20
2018-05-07T08:06:58.189Z,29.50
2018-05-07T08:09:25.032Z,30.00
2018-05-07T08:11:52.192Z,30.60
2018-05-07T08:14:19.141Z,30.00
2018-05-07T08:16:45.989Z,28.70
2018-05-07T08:19:13.147Z,28.70
2018-05-07T08:21:40.913Z,28.20
2018-05-07T08:24:08.375Z,28.20
2018-05-07T08:26:36.456Z,29.00
2018-05-07T08:29:03.404Z,28.40
2018-05-07T08:31:30.358Z,28.20
2018-05-07T08:33:57.571Z,28.90
2018-05-07T08:36:25.217Z,28.50
2018-05-07T08:38:52.741Z,28.80
2018-05-07T08:41:19.594Z,28.80
2018-05-07T08:43:46.443Z,28.30
2018-05-07T08:46:13.703Z,28.60
2018-05-07T08:48:41.028Z,28.10
2018-05-07T08:51:08.845Z,28.30
2018-05-07T08:53:36.495Z,27.90
2018-05-07T08:56:03.450Z,27.90
2018-05-07T08:58:30.401Z,27.40
2018-05-07T09:00:57.259Z,26.70
2018-05-07T09:03:24.513Z,25.90
2018-05-07T09:05:52.272Z,25.30
2018-05-07T09:08:19.428Z,24.30
2018-05-07T09:10:46.201Z,24.10
2018-05-07T09:13:13.074Z,24.20
2018-05-07T09:15:40.691Z,23.90
2018-05-07T09:18:07.648Z,23.80
2018-05-07T09:20:34.697Z,23.80
2018-05-07T09:23:01.494Z,24.00
2018-05-07T09:25:28.290Z,23.80
2018-05-07T09:27:55.158Z,24.00
2018-05-07T09:30:22.500Z,24.10
2018-05-07T09:32:51.599Z,24.00
2018-05-07T09:35:18.653Z,23.90
2018-05-07T09:37:45.910Z,23.80
2018-05-07T09:40:13.499Z,23.80
2018-05-07T09:42:40.428Z,23.90
2018-05-07T09:45:07.787Z,24.10
2018-05-07T09:47:34.747Z,23.90
2018-05-07T09:50:01.688Z,23.80
2018-05-07T09:52:29.561Z,23.90
2018-05-07T09:54:57.240Z,23.50
2018-05-07T09:57:24.178Z,23.50
2018-05-07T09:59:51.032Z,23.70
2018-05-07T10:02:18.695Z,23.60
2018-05-07T10:04:45.855Z,23.70
2018-05-07T10:07:13.422Z,23.30
2018-05-07T10:09:40.367Z,23.30
2018-05-07T10:12:07.214Z,23.60
2018-05-07T10:14:34.064Z,23.40
2018-05-07T10:17:01.825Z,23.00
2018-05-07T10:19:28.579Z,23.00
2018-05-07T10:21:55.635Z,23.10
2018-05-07T10:24:22.585Z,23.30
2018-05-07T10:26:49.639Z,23.30
2018-05-07T10:29:16.802Z,23.40
2018-05-07T10:31:46.303Z,23.40
2018-05-07T10:34:13.355Z,23.50
2018-05-07T10:36:40.308Z,23.50
2018-05-07T10:39:07.358Z,23.60
2018-05-07T10:41:35.133Z,23.30
2018-05-07T10:44:02.082Z,23.30
2018-05-07T10:46:29.541Z,23.10
2018-05-07T10:48:58.137Z,23.20
2018-05-07T10:51:26.025Z,23.40
2018-05-07T10:53:54.867Z,23.60
2018-05-07T10:56:24.900Z,23.80
2018-05-07T10:58:56.491Z,23.80
2018-05-07T11:01:26.329Z,23.80
2018-05-07T11:03:56.968Z,23.80
2018-05-07T11:06:27.704Z,23.90
2018-05-07T11:08:59.409Z,24.00
2018-05-07T11:11:33.358Z,23.90
2018-05-07T11:14:04.029Z,23.90
2018-05-07T11:16:31.738Z,23.90
2018-05-07T11:18:58.489Z,23.80
2018-05-07T11:21:25.435Z,23.70
2018-05-07T11:23:53.102Z,24.10
2018-05-07T11:26:20.055Z,24.10
2018-05-07T11:28:47.517Z,24.10
2018-05-07T11:31:14.642Z,24.10
2018-05-07T11:33:42.544Z,24.10
2018-05-07T11:36:09.916Z,24.00
2018-05-07T11:38:37.267Z,23.80
2018-05-07T11:41:04.217Z,24.00
2018-05-07T11:43:31.166Z,23.90
2018-05-07T11:45:59.041Z,23.30
2018-05-07T11:48:26.398Z,23.30
2018-05-07T11:50:53.866Z,23.30
2018-05-07T11:53:21.018Z,23.50
2018-05-07T11:55:48.099Z,23.30
2018-05-07T11:58:17.238Z,23.30
2018-05-07T12:00:46.273Z,23.30
2018-05-07T12:03:17.568Z,23.30
2018-05-07T12:05:47.109Z,23.50
2018-05-07T12:08:16.301Z,23.40
2018-05-07T12:10:45.885Z,23.60
2018-05-07T12:13:14.279Z,23.70
2018-05-07T12:15:43.741Z,23.60
2018-05-07T12:18:12.582Z,23.60
2018-05-07T12:20:44.343Z,23.40
2018-05-07T12:23:15.033Z,23.40
2018-05-07T12:25:45.342Z,23.30
2018-05-07T12:28:12.821Z,23.20
2018-05-07T12:30:43.540Z,23.50
2018-05-07T12:33:13.898Z,23.50
2018-05-07T12:35:42.983Z,23.50
2018-05-07T12:38:09.831Z,23.50
2018-05-07T12:40:36.685Z,23.40
2018-05-07T12:43:03.642Z,23.40
2018-05-07T12:45:31.299Z,23.50
2018-05-07T12:47:58.151Z,23.40
2018-05-07T12:50:24.999Z,23.60
2018-05-07T12:52:51.848Z,23.80
2018-05-07T12:55:19.513Z,23.70
2018-05-07T12:57:46.360Z,23.60
2018-05-07T13:00:13.523Z,23.50
2018-05-07T13:02:40.471Z,23.20
2018-05-07T13:05:07.726Z,23.20
2018-05-07T13:07:35.494Z,23.10
2018-05-07T13:10:02.449Z,23.00
2018-05-07T13:12:29.395Z,22.90
2018-05-07T13:14:56.348Z,23.10
2018-05-07T13:17:23.199Z,23.00
2018-05-07T13:19:49.942Z,23.00
2018-05-07T13:22:16.791Z,23.20
2018-05-07T13:24:43.756Z,23.20
2018-05-07T13:27:11.103Z,23.10
2018-05-07T13:29:37.957Z,23.10
2018-05-07T13:32:04.902Z,23.20
2018-05-07T13:34:31.750Z,23.60
2018-05-07T13:36:58.702Z,23.50
2018-05-07T13:39:25.690Z,23.60
2018-05-07T13:41:53.016Z,23.50
2018-05-07T13:44:19.967Z,23.30
2018-05-07T13:46:47.017Z,23.20
2018-05-07T13:49:13.971Z,23.40
2018-05-07T13:51:41.328Z,23.40
2018-05-07T13:54:08.281Z,23.30
2018-05-07T13:56:35.666Z,23.40
2018-05-07T13:59:02.597Z,23.10
2018-05-07T14:01:29.543Z,23.00
2018-05-07T14:03:56.704Z,22.90
2018-05-07T14:06:24.471Z,23.10
2018-05-07T14:08:52.455Z,23.10
2018-05-07T14:11:19.449Z,23.00
2018-05-07T14:13:46.965Z,23.20
2018-05-07T14:16:13.807Z,23.50
2018-05-07T14:18:40.758Z,23.40
2018-05-07T14:21:07.708Z,23.30
2018-05-07T14:23:34.659Z,23.40
2018-05-07T14:26:02.026Z,23.30
2018-05-07T14:28:29.076Z,23.10
2018-05-07T14:30:55.922Z,23.00
2018-05-07T14:33:23.599Z,22.90
2018-05-07T14:35:50.409Z,22.90
2018-05-07T14:38:17.287Z,22.80
2018-05-07T14:40:44.136Z,22.80
2018-05-07T14:43:10.984Z,22.70
2018-05-07T14:45:37.839Z,22.60
2018-05-07T14:48:05.295Z,22.60
2018-05-07T14:50:32.948Z,22.50
2018-05-07T14:53:01.142Z,22.50
2018-05-07T14:55:28.295Z,22.50
2018-05-07T14:57:56.678Z,22.50
2018-05-07T15:00:23.633Z,22.40
2018-05-07T15:02:50.481Z,22.30
2018-05-07T15:05:17.841Z,22.40
2018-05-07T15:07:44.791Z,22.40
2018-05-07T15:10:12.152Z,22.70
2018-05-07T15:12:38.999Z,23.10
2018-05-07T15:15:05.951Z,23.30
2018-05-07T15:17:33.004Z,23.60
2018-05-07T15:20:00.365Z,23.70
2018-05-07T15:22:27.214Z,23.60
2018-05-07T15:24:54.062Z,23.60
2018-05-07T15:27:21.525Z,23.50
2018-05-07T15:29:48.480Z,23.40
2018-05-07T15:32:15.530Z,23.70
2018-05-07T15:34:42.685Z,23.60
2018-05-07T15:37:09.950Z,23.30
2018-05-07T15:39:36.896Z,23.10
2018-05-07T15:42:04.266Z,23.10
2018-05-07T15:44:31.746Z,22.90
2018-05-07T15:46:58.777Z,22.90
2018-05-07T15:49:25.944Z,22.80
2018-05-07T15:51:53.626Z,22.60
2018-05-07T15:54:20.746Z,22.50
2018-05-07T15:56:48.112Z,22.50
2018-05-07T15:59:14.965Z,22.40
2018-05-07T16:01:41.906Z,22.30
2018-05-07T16:04:08.770Z,22.20
2018-05-07T16:06:35.707Z,22.10
2018-05-07T16:09:02.659Z,22.00
2018-05-07T16:11:30.735Z,21.60
2018-05-07T16:13:57.506Z,21.60
2018-05-07T16:16:24.477Z,21.50
2018-05-07T16:18:52.099Z,21.40
2018-05-07T16:21:19.077Z,21.50
2018-05-07T16:23:46.218Z,21.30
2018-05-07T16:26:13.157Z,21.30
2018-05-07T16:28:48.602Z,21.10
2018-05-07T16:31:16.541Z,21.10
2018-05-07T16:33:43.731Z,21.10
2018-05-07T16:36:10.682Z,21.10
2018-05-07T16:38:37.534Z,21.20
2018-05-07T16:41:04.386Z,21.20
2018-05-07T16:43:31.253Z,21.20
2018-05-07T16:45:58.079Z,21.20
2018-05-07T16:48:24.930Z,21.20
2018-05-07T16:50:51.876Z,21.20
2018-05-07T16:53:18.829Z,21.20
2018-05-07T16:55:45.676Z,21.10
2018-05-07T16:58:12.632Z,21.00
2018-05-07T17:00:39.579Z,21.00
2018-05-07T17:03:06.530Z,20.90
2018-05-07T17:05:33.684Z,20.80
2018-05-07T17:08:00.534Z,20.80
2018-05-07T17:10:27.486Z,20.80
2018-05-07T17:12:54.339Z,20.90
2018-05-07T17:15:21.182Z,20.90
2018-05-07T17:17:48.135Z,20.90
2018-05-07T17:20:15.115Z,20.80
2018-05-07T17:22:41.933Z,20.80
2018-05-07T17:25:08.887Z,20.80
2018-05-07T17:27:35.680Z,20.80
2018-05-07T17:30:02.629Z,20.70
2018-05-07T17:32:29.837Z,20.60
2018-05-07T17:34:56.997Z,20.50
2018-05-07T17:37:23.843Z,20.50
2018-05-07T17:39:50.998Z,20.50
2018-05-07T17:42:18.257Z,20.40
2018-05-07T17:44:57.488Z,20.50
2018-05-07T17:47:36.616Z,20.40
2018-05-07T17:50:03.676Z,20.30
2018-05-07T17:52:30.928Z,20.20
2018-05-07T17:54:58.875Z,20.10
2018-05-07T17:57:29.412Z,20.00
2018-05-07T18:00:00.250Z,19.90
2018-05-07T18:02:31.470Z,19.70
2018-05-07T18:05:06.926Z,19.50
2018-05-07T18:07:38.981Z,19.50
2018-05-07T18:10:11.196Z,19.30
2018-05-07T18:12:41.652Z,19.10
2018-05-07T18:15:14.383Z,19.00
2018-05-07T18:17:44.088Z,18.90
2018-05-07T18:20:15.785Z,18.70
2018-05-07T18:22:46.814Z,18.50
2018-05-07T18:25:19.312Z,18.50
2018-05-07T18:27:49.322Z,18.40
2018-05-07T18:30:20.329Z,18.00
2018-05-07T18:32:50.581Z,17.80
2018-05-07T18:35:22.637Z,17.80
2018-05-07T18:37:55.215Z,17.50
2018-05-07T18:40:24.661Z,17.40
2018-05-07T18:42:54.869Z,17.40
2018-05-07T18:45:26.193Z,17.30
2018-05-07T18:47:58.142Z,17.00
2018-05-07T18:50:28.225Z,16.90
2018-05-07T18:52:59.987Z,16.80
2018-05-07T18:55:28.963Z,16.80
2018-05-07T18:58:01.725Z,16.50
2018-05-07T19:00:33.562Z,16.30
2018-05-07T19:03:07.640Z,16.10
2018-05-07T19:05:40.505Z,15.90
2018-05-07T19:08:11.997Z,15.90
2018-05-07T19:10:43.293Z,15.70
2018-05-07T19:13:10.175Z,15.50
2018-05-07T19:15:39.976Z,15.50
2018-05-07T19:18:07.936Z,15.40
2018-05-07T19:20:38.363Z,15.40
2018-05-07T19:23:07.191Z,15.30
2018-05-07T19:25:35.787Z,15.20
2018-05-07T19:28:05.194Z,15.10
2018-05-07T19:30:34.042Z,15.00
2018-05-07T19:33:07.310Z,14.70
2018-05-07T19:35:34.709Z,14.70
2018-05-07T19:38:01.428Z,14.60
2018-05-07T19:40:28.233Z,14.50
2018-05-07T19:42:55.799Z,14.30
2018-05-07T19:45:23.295Z,14.10
2018-05-07T19:47:52.119Z,14.10
2018-05-07T19:50:20.291Z,13.90
2018-05-07T19:52:47.143Z,13.90
2018-05-07T19:55:14.281Z,13.90
2018-05-07T19:57:41.449Z,14.00
2018-05-07T20:00:08.446Z,14.00
2018-05-07T20:02:36.521Z,13.90
2018-05-07T20:05:04.301Z,13.90
2018-05-07T20:07:31.127Z,13.90
2018-05-07T20:09:58.092Z,13.80
2018-05-07T20:12:24.872Z,13.80
2018-05-07T20:14:52.203Z,13.60
2018-05-07T20:17:19.044Z,13.40
2018-05-07T20:19:45.894Z,13.20
2018-05-07T20:22:12.645Z,13.10
2018-05-07T20:24:40.324Z,12.90
2018-05-07T20:27:09.360Z,12.80
2018-05-07T20:29:39.121Z,12.80
2018-05-07T20:32:05.890Z,12.80
2018-05-07T20:34:32.803Z,12.70
2018-05-07T20:36:59.773Z,12.80
2018-05-07T20:39:26.726Z,12.70
2018-05-07T20:41:53.572Z,12.70
2018-05-07T20:44:20.316Z,12.70
2018-05-07T20:46:47.164Z,12.50
2018-05-07T20:49:15.280Z,12.50
2018-05-07T20:51:42.705Z,12.50
2018-05-07T20:54:11.434Z,12.40
2018-05-07T20:56:39.166Z,12.40
2018-05-07T20:59:06.283Z,12.30
2018-05-07T21:01:34.381Z,12.30
2018-05-07T21:04:02.476Z,12.20
2018-05-07T21:06:29.730Z,12.10
2018-05-07T21:08:56.477Z,12.10
2018-05-07T21:11:23.327Z,12.10
2018-05-07T21:13:50.175Z,12.10
2018-05-07T21:16:17.028Z,12.00
2018-05-07T21:18:43.875Z,12.00
2018-05-07T21:21:17.789Z,11.90
2018-05-07T21:23:44.534Z,11.70
2018-05-07T21:26:11.482Z,11.50
2018-05-07T21:28:38.328Z,11.30
2018-05-07T21:31:05.277Z,11.30
2018-05-07T21:33:32.946Z,11.20
2018-05-07T21:36:00.204Z,11.10
2018-05-07T21:38:27.819Z,10.90
2018-05-07T21:40:54.822Z,10.80
2018-05-07T21:43:21.774Z,10.80
2018-05-07T21:45:48.827Z,10.90
2018-05-07T21:48:15.595Z,10.80
2018-05-07T21:50:42.422Z,10.90
2018-05-07T21:53:09.370Z,10.80
2018-05-07T21:55:36.325Z,10.70
2018-05-07T21:58:03.599Z,10.70
2018-05-07T22:00:30.435Z,10.60
2018-05-07T22:02:57.790Z,10.60
2018-05-07T22:05:25.254Z,10.60
2018-05-07T22:07:52.306Z,10.70
2018-05-07T22:10:19.256Z,10.70
2018-05-07T22:12:47.538Z,10.70
2018-05-07T22:15:14.396Z,10.70
2018-05-07T22:17:41.338Z,10.70
2018-05-07T22:20:15.555Z,10.70
2018-05-07T22:22:42.513Z,10.70
2018-05-07T22:25:09.458Z,10.70
2018-05-07T22:27:36.410Z,10.80
2018-05-07T22:30:03.258Z,10.70
2018-05-07T22:32:30.209Z,10.60
2018-05-07T22:34:56.973Z,10.50
2018-05-07T22:37:24.109Z,10.50
2018-05-07T22:39:51.730Z,10.60
2018-05-07T22:42:20.058Z,10.50
2018-05-07T22:44:47.009Z,10.50
2018-05-07T22:47:13.859Z,10.50
2018-05-07T22:49:40.864Z,10.40
2018-05-07T22:52:08.622Z,10.50
2018-05-07T22:54:35.939Z,10.40
2018-05-07T22:57:02.732Z,10.50
2018-05-07T22:59:29.488Z,10.60
2018-05-07T23:01:56.279Z,10.50
2018-05-07T23:04:23.539Z,10.50
2018-05-07T23:06:50.283Z,10.30
2018-05-07T23:09:17.138Z,10.30
2018-05-07T23:11:43.986Z,10.20
2018-05-07T23:14:10.830Z,10.30
2018-05-07T23:16:37.678Z,10.30
2018-05-07T23:19:04.530Z,10.40
2018-05-07T23:21:31.479Z,10.30
2018-05-07T23:23:58.429Z,10.20
2018-05-07T23:26:25.277Z,10.10
2018-05-07T23:28:52.534Z,10.20
2018-05-07T23:31:19.287Z,10.30
2018-05-07T23:33:46.026Z,10.40
2018-05-07T23:36:12.982Z,10.40
2018-05-07T23:38:39.759Z,10.50
2018-05-07T23:41:06.676Z,10.30
2018-05-07T23:43:33.529Z,10.30
2018-05-07T23:46:00.271Z,10.30
2018-05-07T23:48:27.120Z,10.20
2018-05-07T23:50:53.970Z,10.20
2018-05-07T23:53:20.920Z,10.10
2018-05-07T23:55:47.690Z,10.00
2018-05-07T23:58:14.616Z,9.90
